Aviation Digital Data Service (ADDS)

Output produced by METARs form (1417 UTC 19 July 2019)
found at http://aviationweather.gov/metar/data/
 
KBWI 191354Z 32007KT 10SM FEW250 32/23 A2995 RMK AO2 SLP139 T03170228
KBWI 191254Z VRB06KT 10SM FEW250 30/23 A2994 RMK AO2 SLP136 T03000228
KBWI 191154Z 28004KT 10SM FEW250 28/23 A2993 RMK AO2 SLP133 T02780228 10278 20239 51009
KBWI 191054Z 00000KT 10SM FEW250 26/23 A2992 RMK AO2 SLP131 T02560228
KBWI 190954Z 00000KT 10SM FEW250 24/22 A2991 RMK AO2 SLP127 T02440222
KBWI 190854Z 24004KT 10SM FEW250 25/23 A2990 RMK AO2 SLP123 T02500228 53000
KBWI 190754Z 00000KT 10SM CLR 24/23 A2990 RMK AO2 SLP123 T02440233
KBWI 190654Z 22004KT 10SM FEW250 26/24 A2990 RMK AO2 SLP123 T02560239
KBWI 190554Z 00000KT 10SM BKN250 24/23 A2990 RMK AO2 SLP123 T02440233 10317 20244 51007
KBWI 190454Z 26003KT 10SM SCT250 26/24 A2989 RMK AO2 SLP121 T02610239 403390239
KBWI 190354Z 25003KT 10SM FEW250 27/24 A2989 RMK AO2 SLP119 T02670239
KBWI 190254Z 19005KT 10SM FEW250 28/24 A2988 RMK AO2 SLP116 T02780239 53007
KBWI 190154Z 00000KT 10SM FEW250 28/24 A2987 RMK AO2 SLP115 T02830239
KBWI 190054Z 00000KT 10SM FEW070 SCT160 SCT250 29/23 A2985 RMK AO2 SLP108 OCNL LTGIC DSNT S TS DSNT S MOV E T02940233
KBWI 182354Z 00000KT 10SM FEW040 SCT070 BKN160 BKN250 32/23 A2986 RMK AO2 SLP108 T03170233 10339 20311 53002
KBWI 182254Z 33006KT 10SM SCT055 SCT070 BKN100 BKN250 32/23 A2985 RMK AO2 SLP108 T03220233
KBWI 182154Z VRB03KT 10SM SCT040 SCT055 BKN100 BKN250 32/23 A2985 RMK AO2 SLP106 T03170233
KBWI 182054Z 31005G17KT 10SM SCT040 BKN055 BKN090 BKN250 32/23 A2985 RMK AO2 SLP106 T03170233 55004
KBWI 181954Z 27012KT 10SM SCT040 BKN095 BKN250 33/23 A2985 RMK AO2 SLP105 VCSH DSNT N T03280228
KBWI 181854Z 28014KT 10SM SCT040 BKN090 BKN250 32/24 A2985 RMK AO2 SLP107 T03220239
KBWI 181754Z 25008KT 10SM SCT070 BKN080 BKN250 33/24 A2986 RMK AO2 SLP111 T03280239 10328 20267 57007
KBWI 181654Z 26009KT 10SM FEW032 BKN070 BKN250 31/23 A2987 RMK AO2 SLP114 T03110233
KBWI 181554Z 23009KT 10SM SCT032 BKN060 BKN085 BKN250 32/24 A2987 RMK AO2 SLP115 T03170239
KBWI 181454Z 27007G17KT 10SM SCT027 BKN055 BKN085 BKN250 29/23 A2988 RMK AO2 SLP118 T02940233 50002
KBWI 181354Z 25005KT 10SM FEW016 SCT050 SCT085 BKN250 29/25 A2989 RMK AO2 SLP119 T02940250
KBWI 181254Z 00000KT 10SM FEW050 SCT085 SCT250 28/25 A2988 RMK AO2 SLP118 T02780250
KBWI 181154Z 00000KT 10SM FEW050 SCT085 SCT250 27/24 A2988 RMK AO2 SLP117 70041 T02670244 10267 20239 51007
KBWI 181054Z 00000KT 10SM FEW055 SCT085 SCT100 BKN250 24/24 A2987 RMK AO2 SLP115 T02440239
KBWI 180954Z 00000KT 10SM SCT080 BKN100 BKN220 24/23 A2987 RMK AO2 SLP115 T02390233
KBWI 180854Z 00000KT 10SM FEW055 BKN095 BKN130 24/23 A2986 RMK AO2 SLP109 T02390233 56008
KBWI 180754Z 00000KT 10SM SCT050 BKN085 BKN120 BKN160 24/24 A2986 RMK AO2 SLP110 T02440239
KBWI 180654Z 00000KT 10SM SCT050 BKN070 BKN120 24/24 A2987 RMK AO2 SLP115 T02440239
KBWI 180554Z 23003KT 10SM FEW075 FEW120 BKN160 BKN250 24/23 A2988 RMK AO2 SLP118 60001 T02440233 10250 20239 57001
KBWI 180454Z 00000KT 10SM SCT120 BKN250 24/23 A2989 RMK AO2 SLP121 T02440233 403670233
KBWI 180354Z 28003KT 10SM BKN100 BKN250 24/23 A2988 RMK AO2 SLP116 OCNL LTGIC DSNT SE CB DSNT SE MOV E T02390233
KBWI 180254Z 00000KT 10SM BKN100 24/23 A2989 RMK AO2 SLP119 OCNL LTGIC DSNT E-SE CB DSNT E-SE MOV E 60001 T02440233 56004
KBWI 191134Z 1912/2018 VRB03KT P6SM FEW250 
     FM192100 22006KT P6SM FEW060 
     FM200400 24004KT P6SM SCT200 
     FM201000 27004KT P6SM FEW200